<?xml version="1.0" encoding="UTF-8" standalone="no" ?>
<gpx xmlns="http://www.topografix.com/GPX/1/1" xmlns:xsi="http://www.w3.org/2001/XMLSchema-instance" xsi:schemaLocation="http://www.topografix.com/GPX/1/1 http://www.topografix.com/GPX/1/1/gpx.xsd" version="1.1" creator="VisuGPX - https://www.visugpx.com">
  <metadata>
    <name>ARQUES LA SEYNE SUR MER 1497 KM</name>
    <desc><![CDATA[Rando de Arques dans le Pas de Calais jusque La Seyne sur Mer dans le Var, 1497 km]]></desc>
  </metadata>
  <trk>
    <name><![CDATA[23 - SEMOUTIERS LEFFONDS 17.8 KM]]></name>
    <extensions>
      <line xmlns="http://www.topografix.com/GPX/gpx_style/0/2">
        <color>008888</color>
        <width>4</width>
      </line>
    </extensions>
    <trkseg>
      <trkpt lat="48.05333" lon="5.07039">
        <ele>321</ele>
        <time>2021-11-06T10:12:06+01:00</time>
      </trkpt>
      <trkpt lat="48.05588" lon="5.0652">
        <ele>319</ele>
        <time>2021-11-06T10:12:11+01:00</time>
      </trkpt>
      <trkpt lat="48.04915" lon="5.05726">
        <ele>325</ele>
        <time>2021-11-06T10:12:16+01:00</time>
      </trkpt>
      <trkpt lat="48.04139" lon="5.0565">
        <ele>334</ele>
        <time>2021-11-06T10:12:21+01:00</time>
      </trkpt>
      <trkpt lat="48.03445" lon="5.05787">
        <ele>338</ele>
        <time>2021-11-06T10:12:26+01:00</time>
      </trkpt>
      <trkpt lat="48.02884" lon="5.05955">
        <ele>337</ele>
        <time>2021-11-06T10:12:31+01:00</time>
      </trkpt>
      <trkpt lat="48.0221" lon="5.05925">
        <ele>341</ele>
        <time>2021-11-06T10:12:36+01:00</time>
      </trkpt>
      <trkpt lat="48.01229" lon="5.07115">
        <ele>342</ele>
        <time>2021-11-06T10:12:41+01:00</time>
      </trkpt>
      <trkpt lat="48.00956" lon="5.0629">
        <ele>346</ele>
        <time>2021-11-06T10:12:46+01:00</time>
      </trkpt>
      <trkpt lat="48.00482" lon="5.06533">
        <ele>358</ele>
        <time>2021-11-06T10:12:51+01:00</time>
      </trkpt>
      <trkpt lat="48.00493" lon="5.06604">
        <ele>358</ele>
        <time>2021-11-06T10:12:56+01:00</time>
      </trkpt>
      <trkpt lat="48.00236" lon="5.06723">
        <ele>369</ele>
        <time>2021-11-06T10:13:01+01:00</time>
      </trkpt>
      <trkpt lat="47.99318" lon="5.06962">
        <ele>364</ele>
        <time>2021-11-06T10:13:06+01:00</time>
      </trkpt>
      <trkpt lat="47.9934" lon="5.07095">
        <ele>363</ele>
        <time>2021-11-06T10:13:11+01:00</time>
      </trkpt>
      <trkpt lat="47.98813" lon="5.07209">
        <ele>362</ele>
        <time>2021-11-06T10:13:16+01:00</time>
      </trkpt>
      <trkpt lat="47.98849" lon="5.07639">
        <ele>368</ele>
        <time>2021-11-06T10:13:21+01:00</time>
      </trkpt>
      <trkpt lat="47.98702" lon="5.0759">
        <ele>368</ele>
        <time>2021-11-06T10:13:26+01:00</time>
      </trkpt>
      <trkpt lat="47.98259" lon="5.09118">
        <ele>361</ele>
        <time>2021-11-06T10:13:31+01:00</time>
      </trkpt>
      <trkpt lat="47.97841" lon="5.10651">
        <ele>388</ele>
        <time>2021-11-06T10:13:36+01:00</time>
      </trkpt>
      <trkpt lat="47.97845" lon="5.11209">
        <ele>387</ele>
        <time>2021-11-06T10:13:41+01:00</time>
      </trkpt>
      <trkpt lat="47.97962" lon="5.115">
        <ele>380</ele>
        <time>2021-11-06T10:13:46+01:00</time>
      </trkpt>
      <trkpt lat="47.97889" lon="5.11993">
        <ele>378</ele>
        <time>2021-11-06T10:13:51+01:00</time>
      </trkpt>
      <trkpt lat="47.97896" lon="5.12118">
        <ele>379</ele>
        <time>2021-11-06T10:13:56+01:00</time>
      </trkpt>
      <trkpt lat="47.97863" lon="5.12217">
        <ele>379</ele>
        <time>2021-11-06T10:14:01+01:00</time>
      </trkpt>
      <trkpt lat="47.97907" lon="5.12403">
        <ele>377</ele>
        <time>2021-11-06T10:14:06+01:00</time>
      </trkpt>
      <trkpt lat="47.97969" lon="5.12776">
        <ele>371</ele>
        <time>2021-11-06T10:14:11+01:00</time>
      </trkpt>
      <trkpt lat="47.97852" lon="5.13438">
        <ele>385</ele>
        <time>2021-11-06T10:14:16+01:00</time>
      </trkpt>
      <trkpt lat="47.97845" lon="5.13624">
        <ele>390</ele>
        <time>2021-11-06T10:14:21+01:00</time>
      </trkpt>
      <trkpt lat="47.97779" lon="5.13794">
        <ele>397</ele>
        <time>2021-11-06T10:14:26+01:00</time>
      </trkpt>
      <trkpt lat="47.97757" lon="5.14407">
        <ele>405</ele>
        <time>2021-11-06T10:14:31+01:00</time>
      </trkpt>
      <trkpt lat="47.97643" lon="5.15174">
        <ele>399</ele>
        <time>2021-11-06T10:14:36+01:00</time>
      </trkpt>
      <trkpt lat="47.97482" lon="5.15591">
        <ele>390</ele>
        <time>2021-11-06T10:14:41+01:00</time>
      </trkpt>
      <trkpt lat="47.97182" lon="5.15367">
        <ele>395</ele>
        <time>2021-11-06T10:14:46+01:00</time>
      </trkpt>
      <trkpt lat="47.96993" lon="5.15357">
        <ele>393</ele>
        <time>2021-11-06T10:14:51+01:00</time>
      </trkpt>
      <trkpt lat="47.97007" lon="5.15559">
        <ele>387</ele>
        <time>2021-11-06T10:14:56+01:00</time>
      </trkpt>
      <trkpt lat="47.97125" lon="5.15751">
        <ele>387</ele>
        <time>2021-11-06T10:15:01+01:00</time>
      </trkpt>
      <trkpt lat="47.97099" lon="5.16085">
        <ele>354</ele>
        <time>2021-11-06T10:15:06+01:00</time>
      </trkpt>
      <trkpt lat="47.97029" lon="5.16296">
        <ele>363</ele>
        <time>2021-11-06T10:15:11+01:00</time>
      </trkpt>
      <trkpt lat="47.96985" lon="5.16427">
        <ele>372</ele>
        <time>2021-11-06T10:15:16+01:00</time>
      </trkpt>
      <trkpt lat="47.97073" lon="5.16584">
        <ele>367</ele>
        <time>2021-11-06T10:15:21+01:00</time>
      </trkpt>
      <trkpt lat="47.97024" lon="5.16668">
        <ele>367</ele>
        <time>2021-11-06T10:15:26+01:00</time>
      </trkpt>
    </trkseg>
  </trk>
</gpx>